createdAt,value
2022-11-24T00:01:10.099Z,54.60
2022-11-24T00:03:37.052Z,56.60
2022-11-24T00:06:09.574Z,54.50
2022-11-24T00:08:37.553Z,54.60
2022-11-24T00:11:16.125Z,54.60
2022-11-24T00:13:43.506Z,55.20
2022-11-24T00:16:16.473Z,54.60
2022-11-24T00:18:45.149Z,54.60
2022-11-24T00:21:12.569Z,54.60
2022-11-24T00:23:39.487Z,54.60
2022-11-24T00:26:08.465Z,54.60
2022-11-24T00:28:35.713Z,54.50
2022-11-24T00:31:03.841Z,54.70
2022-11-24T00:33:31.164Z,54.60
2022-11-24T00:35:59.654Z,54.60
2022-11-24T00:38:27.020Z,54.60
2022-11-24T00:40:53.747Z,55.00
2022-11-24T00:43:20.483Z,54.70
2022-11-24T00:45:47.442Z,54.60
2022-11-24T00:48:14.181Z,54.60
2022-11-24T00:50:40.998Z,54.70
2022-11-24T00:53:07.952Z,54.60
2022-11-24T00:55:34.754Z,54.70
2022-11-24T00:58:01.601Z,54.70
2022-11-24T01:00:28.362Z,54.70
2022-11-24T01:02:55.212Z,54.70
2022-11-24T01:05:22.073Z,54.70
2022-11-24T01:07:48.869Z,54.70
2022-11-24T01:10:15.894Z,54.70
2022-11-24T01:12:42.722Z,54.70
2022-11-24T01:15:09.559Z,54.80
2022-11-24T01:17:36.394Z,54.80
2022-11-24T01:20:04.702Z,54.70
2022-11-24T01:22:32.344Z,54.70
2022-11-24T01:24:59.295Z,54.80
2022-11-24T01:27:26.018Z,54.70
2022-11-24T01:29:52.743Z,57.10
2022-11-24T01:32:19.473Z,54.80
2022-11-24T01:34:46.203Z,54.80
2022-11-24T01:37:12.993Z,54.70
2022-11-24T01:39:39.821Z,54.70
2022-11-24T01:42:07.476Z,54.70
2022-11-24T01:44:34.717Z,54.70
2022-11-24T01:47:22.402Z,54.70
2022-11-24T01:49:54.090Z,55.30
2022-11-24T01:52:28.161Z,54.70
2022-11-24T01:54:58.674Z,54.70
2022-11-24T01:57:31.916Z,54.70
2022-11-24T02:00:05.863Z,54.80
2022-11-24T02:02:42.210Z,57.10
2022-11-24T02:05:17.849Z,54.70
2022-11-24T02:07:45.510Z,55.20
2022-11-24T02:10:16.200Z,54.60
2022-11-24T02:12:47.563Z,56.00
2022-11-24T02:15:18.760Z,54.60
2022-11-24T02:17:45.582Z,55.40
2022-11-24T02:20:14.734Z,54.70
2022-11-24T02:22:51.307Z,54.70
2022-11-24T02:25:51.809Z,54.60
2022-11-24T02:28:22.205Z,55.20
2022-11-24T02:30:50.475Z,54.50
2022-11-24T02:33:18.365Z,54.60
2022-11-24T02:35:45.119Z,56.10
2022-11-24T02:38:16.082Z,54.50
2022-11-24T02:40:47.790Z,54.70
2022-11-24T02:43:19.258Z,54.60
2022-11-24T02:45:46.392Z,54.50
2022-11-24T02:48:15.210Z,54.50
2022-11-24T02:50:41.999Z,54.40
2022-11-24T02:53:08.873Z,54.50
2022-11-24T02:55:35.639Z,54.50
2022-11-24T02:58:02.447Z,54.50
2022-11-24T03:00:29.196Z,54.50
2022-11-24T03:02:56.046Z,54.50
2022-11-24T03:05:23.583Z,54.50
2022-11-24T03:07:50.403Z,54.50
2022-11-24T03:10:17.480Z,54.50
2022-11-24T03:12:44.258Z,54.50
2022-11-24T03:15:11.390Z,54.50
2022-11-24T03:17:38.126Z,54.50
2022-11-24T03:20:05.540Z,54.60
2022-11-24T03:22:32.552Z,54.60
2022-11-24T03:24:59.280Z,54.50
2022-11-24T03:27:25.988Z,54.50
2022-11-24T03:29:52.723Z,54.50
2022-11-24T03:32:19.641Z,54.60
2022-11-24T03:34:46.392Z,54.70
2022-11-24T03:37:13.241Z,54.60
2022-11-24T03:39:40.115Z,54.60
2022-11-24T03:42:06.863Z,54.60
2022-11-24T03:44:34.195Z,54.70
2022-11-24T03:47:01.030Z,54.60
2022-11-24T03:49:27.793Z,54.70
2022-11-24T03:51:54.530Z,54.80
2022-11-24T03:54:21.281Z,54.60
2022-11-24T03:56:48.098Z,54.70
2022-11-24T03:59:14.974Z,54.40
2022-11-24T04:01:41.783Z,54.70
2022-11-24T04:04:11.701Z,54.70
2022-11-24T04:06:39.211Z,55.50
2022-11-24T04:09:06.187Z,56.60
2022-11-24T04:11:51.627Z,54.80
2022-11-24T04:14:19.381Z,54.70
2022-11-24T04:16:46.144Z,54.80
2022-11-24T04:19:13.058Z,54.70
2022-11-24T04:21:39.825Z,54.70
2022-11-24T04:24:06.796Z,54.70
2022-11-24T04:26:33.551Z,54.70
2022-11-24T04:29:00.371Z,54.70
2022-11-24T04:31:27.152Z,56.60
2022-11-24T04:33:54.091Z,54.70
2022-11-24T04:39:25.564Z,54.50
2022-11-24T04:41:34.950Z,54.50
2022-11-24T04:44:01.751Z,54.60
2022-11-24T04:46:28.545Z,54.50
2022-11-24T04:48:55.423Z,56.00
2022-11-24T04:51:22.270Z,54.60
2022-11-24T04:53:49.400Z,54.50
2022-11-24T04:56:16.219Z,56.70
2022-11-24T04:58:43.027Z,54.50
2022-11-24T05:01:09.842Z,54.50
2022-11-24T05:03:37.140Z,54.50
2022-11-24T05:06:04.214Z,55.80
2022-11-24T05:08:31.065Z,54.50
2022-11-24T05:11:02.960Z,54.50
2022-11-24T05:13:29.764Z,54.40
2022-11-24T05:15:56.563Z,54.40
2022-11-24T05:18:23.511Z,54.40
2022-11-24T05:20:50.312Z,54.40
2022-11-24T05:23:17.508Z,54.40
2022-11-24T05:25:47.616Z,54.40
2022-11-24T05:28:15.114Z,54.40
2022-11-24T05:30:42.747Z,54.40
2022-11-24T05:33:19.122Z,54.30
2022-11-24T05:35:47.166Z,54.40
2022-11-24T05:38:14.037Z,54.30
2022-11-24T05:40:41.022Z,54.30
2022-11-24T05:43:12.185Z,54.80
2022-11-24T05:45:39.313Z,56.90
2022-11-24T05:48:07.983Z,54.30
2022-11-24T05:50:35.427Z,55.80
2022-11-24T05:53:06.329Z,54.30
2022-11-24T05:55:33.552Z,54.20
2022-11-24T05:58:01.910Z,54.00
2022-11-24T06:00:29.998Z,54.20
2022-11-24T06:03:00.713Z,54.90
2022-11-24T06:05:28.858Z,55.20
2022-11-24T06:07:56.157Z,55.20
2022-11-24T06:10:26.271Z,54.10
2022-11-24T06:12:53.191Z,54.70
2022-11-24T06:15:20.289Z,54.20
2022-11-24T06:17:54.872Z,54.20
2022-11-24T06:20:22.778Z,54.20
2022-11-24T06:22:49.569Z,54.20
2022-11-24T06:25:16.745Z,54.10
2022-11-24T06:27:44.638Z,54.10
2022-11-24T06:30:12.365Z,54.10
2022-11-24T06:32:42.588Z,54.10
2022-11-24T06:35:12.002Z,54.10
2022-11-24T06:37:38.914Z,54.10
2022-11-24T06:40:08.716Z,54.10
2022-11-24T06:42:36.590Z,54.10
2022-11-24T06:45:08.752Z,54.10
2022-11-24T06:47:36.445Z,54.10
2022-11-24T06:50:03.410Z,54.20
2022-11-24T06:52:30.215Z,54.30
2022-11-24T06:54:57.207Z,54.20
2022-11-24T06:57:23.943Z,54.30
2022-11-24T06:59:50.809Z,54.20
2022-11-24T07:02:17.587Z,54.20
2022-11-24T07:04:44.378Z,54.20
2022-11-24T07:07:11.304Z,54.20
2022-11-24T07:09:38.186Z,53.90
2022-11-24T07:12:05.859Z,54.20
2022-11-24T07:14:33.050Z,54.00
2022-11-24T07:17:02.369Z,54.00
2022-11-24T07:19:29.126Z,54.00
2022-11-24T07:21:56.010Z,54.20
2022-11-24T07:24:22.770Z,54.50
2022-11-24T07:26:49.531Z,54.20
2022-11-24T07:29:16.406Z,54.20
2022-11-24T07:31:43.553Z,54.30
2022-11-24T07:34:10.552Z,54.30
2022-11-24T07:36:37.275Z,54.30
2022-11-24T07:39:06.885Z,54.30
2022-11-24T07:41:33.587Z,54.40
2022-11-24T07:44:00.413Z,54.60
2022-11-24T07:46:27.393Z,55.00
2022-11-24T07:48:54.171Z,55.20
2022-11-24T07:51:20.883Z,55.40
2022-11-24T07:53:47.684Z,55.50
2022-11-24T07:56:14.611Z,55.60
2022-11-24T07:58:41.508Z,55.50
2022-11-24T08:01:17.045Z,55.50
2022-11-24T08:03:45.068Z,55.50
2022-11-24T08:06:35.435Z,55.60
2022-11-24T08:09:00.178Z,56.00
2022-11-24T08:11:27.538Z,54.90
2022-11-24T08:13:54.391Z,55.40
2022-11-24T08:16:21.318Z,55.40
2022-11-24T08:18:56.099Z,55.50
2022-11-24T08:21:23.688Z,56.00
2022-11-24T08:23:54.590Z,55.40
2022-11-24T08:26:21.489Z,55.60
2022-11-24T08:28:53.082Z,55.30
2022-11-24T08:31:19.962Z,55.30
2022-11-24T08:33:47.202Z,55.20
2022-11-24T08:36:16.506Z,55.30
2022-11-24T08:38:44.637Z,55.20
2022-11-24T08:41:14.469Z,55.20
2022-11-24T08:43:42.636Z,55.20
2022-11-24T08:46:12.382Z,55.20
2022-11-24T08:48:39.947Z,55.20
2022-11-24T08:51:09.687Z,56.20
2022-11-24T08:53:36.726Z,55.10
2022-11-24T08:56:04.827Z,55.10
2022-11-24T08:58:32.396Z,55.10
2022-11-24T09:01:08.051Z,55.00
2022-11-24T09:03:35.290Z,55.10
2022-11-24T09:06:02.477Z,55.10
2022-11-24T09:08:30.277Z,55.10
2022-11-24T09:11:08.694Z,55.00
2022-11-24T09:13:36.513Z,55.00
2022-11-24T09:16:05.978Z,55.00
2022-11-24T09:18:33.208Z,55.00
2022-11-24T09:21:15.343Z,54.90
2022-11-24T09:23:43.589Z,55.00
2022-11-24T09:26:13.075Z,54.90
2022-11-24T09:28:40.670Z,54.90
2022-11-24T09:31:12.424Z,54.90
2022-11-24T09:33:40.582Z,55.50
2022-11-24T09:36:08.014Z,54.80
2022-11-24T09:38:34.787Z,54.80
2022-11-24T09:41:24.107Z,54.80
2022-11-24T09:43:59.949Z,55.40
2022-11-24T09:47:08.901Z,54.90
2022-11-24T09:49:46.133Z,54.80
2022-11-24T09:52:22.906Z,54.70
2022-11-24T09:54:55.369Z,54.80
2022-11-24T09:57:25.999Z,54.80
2022-11-24T09:59:55.160Z,54.70
2022-11-24T10:02:21.867Z,54.80
2022-11-24T10:04:48.799Z,54.80
2022-11-24T10:07:30.444Z,54.90
2022-11-24T10:10:22.826Z,55.00
2022-11-24T10:13:32.277Z,55.10
2022-11-24T10:16:17.280Z,55.80
2022-11-24T10:19:02.526Z,55.80
2022-11-24T10:21:47.946Z,56.00
2022-11-24T10:24:46.890Z,55.50
2022-11-24T10:27:22.508Z,56.30
2022-11-24T10:29:52.020Z,56.30
2022-11-24T10:32:31.742Z,56.40
2022-11-24T10:35:15.308Z,56.50
2022-11-24T10:38:19.578Z,55.90
2022-11-24T10:40:58.499Z,56.50
2022-11-24T10:43:28.078Z,56.10
2022-11-24T10:46:12.906Z,56.90
2022-11-24T10:48:53.448Z,56.80
2022-11-24T10:51:29.034Z,56.30
2022-11-24T10:54:05.474Z,57.00
2022-11-24T10:56:43.672Z,56.40
2022-11-24T10:59:33.601Z,56.50
2022-11-24T11:02:01.190Z,57.10
2022-11-24T11:04:32.753Z,56.60
2022-11-24T11:07:09.533Z,56.60
2022-11-24T11:09:36.667Z,56.60
2022-11-24T11:15:30.901Z,56.60
2022-11-24T11:18:00.925Z,57.50
2022-11-24T11:20:34.054Z,58.40
2022-11-24T11:23:04.848Z,56.70
2022-11-24T11:25:35.346Z,56.70
2022-11-24T11:28:18.272Z,58.90
2022-11-24T11:31:21.781Z,56.80
2022-11-24T11:34:13.917Z,56.80
2022-11-24T11:36:50.404Z,57.40
2022-11-24T11:39:23.089Z,58.50
2022-11-24T11:42:31.338Z,56.90
2022-11-24T11:45:26.474Z,57.40
2022-11-24T11:47:56.567Z,57.60
2022-11-24T11:50:42.842Z,57.30
2022-11-24T11:53:25.832Z,57.60
2022-11-24T11:56:07.397Z,58.60
2022-11-24T11:58:37.139Z,57.70
2022-11-24T12:01:26.813Z,57.20
2022-11-24T12:04:16.499Z,57.90
2022-11-24T12:07:05.038Z,57.70
2022-11-24T12:09:35.313Z,57.80
2022-11-24T12:12:05.013Z,57.40
2022-11-24T12:14:39.349Z,57.90
2022-11-24T12:17:19.151Z,57.80
2022-11-24T12:20:17.032Z,57.90
2022-11-24T12:23:06.598Z,58.00
2022-11-24T12:25:42.234Z,57.30
2022-11-24T12:28:51.650Z,57.40
2022-11-24T12:31:45.412Z,57.40
2022-11-24T12:34:38.638Z,57.90
2022-11-24T12:37:30.477Z,57.40
2022-11-24T12:40:22.160Z,57.40
2022-11-24T12:43:22.598Z,57.40
2022-11-24T12:46:16.874Z,57.40
2022-11-24T12:49:03.278Z,58.90
2022-11-24T12:51:35.940Z,57.50
2022-11-24T12:54:06.845Z,57.50
2022-11-24T12:56:47.132Z,57.50
2022-11-24T12:59:21.186Z,58.20
2022-11-24T13:02:15.414Z,57.70
2022-11-24T13:05:07.630Z,58.30
2022-11-24T13:07:44.078Z,58.30
2022-11-24T13:10:54.163Z,57.70
2022-11-24T13:13:17.614Z,58.20
2022-11-24T13:16:35.296Z,57.70
2022-11-24T13:19:13.827Z,58.30
2022-11-24T13:21:40.607Z,59.80
2022-11-24T13:27:16.249Z,57.90
2022-11-24T13:29:45.163Z,58.00
2022-11-24T13:32:11.887Z,57.90
2022-11-24T13:34:49.678Z,58.00
2022-11-24T13:37:31.327Z,60.10
2022-11-24T13:40:11.849Z,59.00
2022-11-24T13:43:02.753Z,58.60
2022-11-24T13:45:38.614Z,58.80
2022-11-24T13:48:28.377Z,59.30
2022-11-24T13:50:58.139Z,60.60
2022-11-24T13:53:32.993Z,59.60
2022-11-24T13:56:02.959Z,59.80
2022-11-24T13:58:42.809Z,59.80
2022-11-24T14:01:19.364Z,59.80
2022-11-24T14:06:55.548Z,59.90
2022-11-24T14:09:31.095Z,59.80
2022-11-24T14:12:02.665Z,59.80
2022-11-24T14:14:29.560Z,59.80
2022-11-24T14:17:19.354Z,58.40
2022-11-24T14:19:51.832Z,61.20
2022-11-24T14:22:21.917Z,59.50
2022-11-24T14:24:54.085Z,59.50
2022-11-24T14:27:31.272Z,59.50
2022-11-24T14:30:15.370Z,59.90
2022-11-24T14:32:55.976Z,59.40
2022-11-24T14:35:26.314Z,59.30
2022-11-24T14:37:53.200Z,59.20
2022-11-24T14:40:43.578Z,59.20
2022-11-24T14:43:32.585Z,59.30
2022-11-24T14:46:01.313Z,59.80
2022-11-24T14:48:37.382Z,59.10
2022-11-24T14:51:11.799Z,59.60
2022-11-24T14:53:44.730Z,58.90
2022-11-24T14:56:29.626Z,59.80
2022-11-24T14:58:57.780Z,61.10
2022-11-24T15:01:33.275Z,59.80
2022-11-24T15:04:38.991Z,59.80
2022-11-24T15:07:13.799Z,59.40
2022-11-24T15:09:53.635Z,59.30
2022-11-24T15:12:41.272Z,59.30
2022-11-24T15:15:13.988Z,59.20
2022-11-24T15:17:53.463Z,59.30
2022-11-24T15:20:43.114Z,59.70
2022-11-24T15:23:35.287Z,59.20
2022-11-24T15:26:02.117Z,59.10
2022-11-24T15:28:30.460Z,60.90
2022-11-24T15:31:05.011Z,59.60
2022-11-24T15:33:32.471Z,60.70
2022-11-24T15:35:59.870Z,60.40
2022-11-24T15:38:26.645Z,60.50
2022-11-24T15:40:55.896Z,60.60
2022-11-24T15:43:34.374Z,59.80
2022-11-24T15:46:02.470Z,59.20
2022-11-24T15:48:30.021Z,59.50
2022-11-24T15:50:58.354Z,59.50
2022-11-24T15:53:28.338Z,59.60
2022-11-24T15:55:57.002Z,60.40
2022-11-24T15:58:24.010Z,59.30
2022-11-24T16:00:53.456Z,60.90
2022-11-24T16:06:15.859Z,60.80
2022-11-24T16:08:46.382Z,59.20
2022-11-24T16:11:13.201Z,60.60
2022-11-24T16:13:40.153Z,60.60
2022-11-24T16:16:07.171Z,60.50
2022-11-24T16:18:35.336Z,59.90
2022-11-24T16:21:02.181Z,60.40
2022-11-24T16:23:28.969Z,60.60
2022-11-24T16:25:55.828Z,59.90
2022-11-24T16:28:22.703Z,59.70
2022-11-24T16:30:50.418Z,60.40
2022-11-24T16:33:17.466Z,59.90
2022-11-24T16:35:48.026Z,60.40
2022-11-24T16:38:19.169Z,59.50
2022-11-24T16:40:54.440Z,59.90
2022-11-24T16:43:21.328Z,61.20
2022-11-24T16:46:16.208Z,60.50
2022-11-24T16:48:44.247Z,59.10
2022-11-24T16:51:11.934Z,59.80
2022-11-24T16:53:38.745Z,60.10
2022-11-24T16:56:06.141Z,60.60
2022-11-24T16:58:33.293Z,59.80
2022-11-24T17:01:07.600Z,60.10
2022-11-24T17:03:37.848Z,59.50
2022-11-24T17:06:07.530Z,59.70
2022-11-24T17:08:36.018Z,59.20
2022-11-24T17:11:06.742Z,60.00
2022-11-24T17:13:34.045Z,59.70
2022-11-24T17:16:08.004Z,60.30
2022-11-24T17:18:34.942Z,59.20
2022-11-24T17:21:07.788Z,60.80
2022-11-24T17:23:36.229Z,59.90
2022-11-24T17:26:05.007Z,61.10
2022-11-24T17:28:31.971Z,59.50
2022-11-24T17:30:58.654Z,62.40
2022-11-24T17:33:25.454Z,60.20
2022-11-24T17:35:52.258Z,61.20
2022-11-24T17:38:19.056Z,60.70
2022-11-24T17:40:48.970Z,60.00
2022-11-24T17:43:15.675Z,61.60
2022-11-24T17:45:42.468Z,60.60
2022-11-24T17:48:09.245Z,60.40
2022-11-24T17:50:35.966Z,60.40
2022-11-24T17:53:02.783Z,61.10
2022-11-24T17:55:29.602Z,59.30
2022-11-24T17:57:56.738Z,60.60
2022-11-24T18:00:23.697Z,60.90
2022-11-24T18:02:50.511Z,60.30
2022-11-24T18:05:17.536Z,60.60
2022-11-24T18:07:44.258Z,60.20
2022-11-24T18:10:11.458Z,59.90
2022-11-24T18:12:38.202Z,59.30
2022-11-24T18:15:05.564Z,60.90
2022-11-24T18:17:32.377Z,59.80
2022-11-24T18:19:59.141Z,60.10
2022-11-24T18:22:49.956Z,60.70
2022-11-24T18:25:12.886Z,60.20
2022-11-24T18:27:39.645Z,60.00
2022-11-24T18:30:07.721Z,60.50
2022-11-24T18:32:34.517Z,59.30
2022-11-24T18:35:01.337Z,60.90
2022-11-24T18:37:30.586Z,61.10
2022-11-24T18:39:57.390Z,59.60
2022-11-24T18:42:25.573Z,60.40
2022-11-24T18:44:54.300Z,59.80
2022-11-24T18:47:21.199Z,60.30
2022-11-24T18:49:47.930Z,60.20
2022-11-24T18:52:14.766Z,60.00
2022-11-24T18:54:41.741Z,59.70
2022-11-24T18:57:08.474Z,60.30
2022-11-24T18:59:35.364Z,60.90
2022-11-24T19:02:02.191Z,60.30
2022-11-24T19:04:28.978Z,60.60
2022-11-24T19:06:55.766Z,59.70
2022-11-24T19:09:22.880Z,61.20
2022-11-24T19:11:49.711Z,61.10
2022-11-24T19:14:18.993Z,60.40
2022-11-24T19:16:47.989Z,59.30
2022-11-24T19:19:16.842Z,60.10
2022-11-24T19:21:44.170Z,60.00
2022-11-24T19:24:13.042Z,60.90
2022-11-24T19:26:40.217Z,60.70
2022-11-24T19:29:08.118Z,59.90
2022-11-24T19:31:35.366Z,59.30
2022-11-24T19:34:03.496Z,60.30
2022-11-24T19:36:30.417Z,60.30
2022-11-24T19:38:58.349Z,60.00
2022-11-24T19:41:29.840Z,59.40
2022-11-24T19:43:58.438Z,59.30
2022-11-24T19:46:27.383Z,60.30
2022-11-24T19:48:56.885Z,60.30
2022-11-24T19:51:27.246Z,59.40
2022-11-24T19:53:54.579Z,59.60
2022-11-24T19:56:23.557Z,61.70
2022-11-24T19:58:51.257Z,60.30
2022-11-24T20:01:24.687Z,60.00
2022-11-24T20:04:20.807Z,60.30
2022-11-24T20:06:47.951Z,60.60
2022-11-24T20:09:18.356Z,60.20
2022-11-24T20:11:45.813Z,59.50
2022-11-24T20:14:14.529Z,60.30
2022-11-24T20:16:42.573Z,59.50
2022-11-24T20:19:13.831Z,59.90
2022-11-24T20:21:46.239Z,59.20
2022-11-24T20:24:22.474Z,59.90
2022-11-24T20:26:52.423Z,59.20
2022-11-24T20:29:19.720Z,60.80
2022-11-24T20:31:49.196Z,61.40
2022-11-24T20:34:16.282Z,59.50
2022-11-24T20:36:45.333Z,60.80
2022-11-24T20:39:18.897Z,59.50
2022-11-24T20:41:46.544Z,60.90
2022-11-24T20:44:17.076Z,60.20
2022-11-24T20:46:45.640Z,60.40
2022-11-24T20:49:19.768Z,59.80
2022-11-24T20:51:47.692Z,59.60
2022-11-24T20:54:16.670Z,60.30
2022-11-24T20:56:46.264Z,59.40
2022-11-24T20:59:22.100Z,60.80
2022-11-24T21:01:50.454Z,59.30
2022-11-24T21:04:22.516Z,59.70
2022-11-24T21:06:49.605Z,61.20
2022-11-24T21:09:16.640Z,60.90
2022-11-24T21:11:43.782Z,60.90
2022-11-24T21:14:11.181Z,60.70
2022-11-24T21:16:40.636Z,60.60
2022-11-24T21:19:11.629Z,60.20
2022-11-24T21:21:39.626Z,59.90
2022-11-24T21:24:11.885Z,59.80
2022-11-24T21:26:39.693Z,59.50
2022-11-24T21:29:07.260Z,60.00
2022-11-24T21:31:38.269Z,60.90
2022-11-24T21:34:06.626Z,61.20
2022-11-24T21:36:34.988Z,61.80
2022-11-24T21:39:03.050Z,60.30
2022-11-24T21:41:32.513Z,60.50
2022-11-24T21:43:59.281Z,60.30
2022-11-24T21:46:27.836Z,62.00
2022-11-24T21:48:54.575Z,60.30
2022-11-24T21:51:21.572Z,62.20
2022-11-24T21:53:48.466Z,62.30
2022-11-24T21:56:20.795Z,61.50
2022-11-24T21:58:53.162Z,60.00
2022-11-24T22:01:22.040Z,61.40
2022-11-24T22:03:49.191Z,61.10
2022-11-24T22:06:17.684Z,61.40
2022-11-24T22:08:44.771Z,61.40
2022-11-24T22:11:14.359Z,62.30
2022-11-24T22:13:42.354Z,60.80
2022-11-24T22:16:12.327Z,61.80
2022-11-24T22:18:41.339Z,60.30
2022-11-24T22:21:15.570Z,60.90
2022-11-24T22:23:43.029Z,60.30
2022-11-24T22:26:16.529Z,60.80
2022-11-24T22:28:44.178Z,60.50
2022-11-24T22:31:16.935Z,61.30
2022-11-24T22:33:44.335Z,61.30
2022-11-24T22:36:12.434Z,62.00
2022-11-24T22:38:39.526Z,61.00
2022-11-24T22:41:09.264Z,61.30
2022-11-24T22:43:37.483Z,60.60
2022-11-24T22:46:06.496Z,61.10
2022-11-24T22:48:33.901Z,60.90
2022-11-24T22:51:06.109Z,62.20
2022-11-24T22:53:33.394Z,60.80
2022-11-24T22:56:07.942Z,62.30
2022-11-24T22:58:35.057Z,61.30
2022-11-24T23:01:18.801Z,62.30
2022-11-24T23:03:46.744Z,60.60
2022-11-24T23:06:18.529Z,61.90
2022-11-24T23:08:45.280Z,60.50
2022-11-24T23:11:17.681Z,62.80
2022-11-24T23:13:44.855Z,61.80
2022-11-24T23:16:17.356Z,62.60
2022-11-24T23:18:48.798Z,60.50
2022-11-24T23:21:21.576Z,61.10
2022-11-24T23:23:49.705Z,63.00
2022-11-24T23:26:26.290Z,62.90
2022-11-24T23:28:53.151Z,60.50
2022-11-24T23:31:21.902Z,62.30
2022-11-24T23:33:48.762Z,61.70
2022-11-24T23:36:18.001Z,62.30
2022-11-24T23:38:45.304Z,60.90
2022-11-24T23:41:19.540Z,62.80
2022-11-24T23:43:46.894Z,61.60
2022-11-24T23:46:22.549Z,61.40
2022-11-24T23:48:51.230Z,61.50
2022-11-24T23:51:24.890Z,61.00
2022-11-24T23:53:52.193Z,60.40
2022-11-24T23:56:21.225Z,61.20
2022-11-24T23:58:49.009Z,61.30
